KSUX/SUX METAR and TAF weather

Enter ICAO airport designator
Station Type Date Time Source
KSUX METAR 2019/12/08 10:52 UTC NOAA

KSUX 081052Z AUTO 12004KT 10SM CLR M02/M03 A2977 RMK AO2 SLP090 T10221033


Station Type Date Time Source
KSUX Decoded METAR 2019/12/08 10:52 UTC NOAA

SIOUX GATEWAY AIRPORT, IA, United States (KSUX) 42-23N 96-23W 338M
Dec 08, 2019 - 05:52 AM EST / 2019.12.08 1052 UTC
Wind: from the ESE (120 degrees) at 5 MPH (4 KT):0
Visibility: 10 mile(s):0
Sky conditions: clear
Temperature: 28.0 F (-2.2 C)
Windchill: 23 F (-5 C):1
Dew Point: 26.1 F (-3.3 C)
Relative Humidity: 92%
Pressure (altimeter): 29.77 in. Hg (1008 hPa)
ob: KSUX 081052Z AUTO 12004KT 10SM CLR M02/M03 A2977 RMK AO2 SLP090 T10221033
cycle: 11

Station Type Date Time Source
KSUX TAF 2019/12/08 12:22 UTC NOAA

TAF KSUX 081120Z 0812/0912 VRB03KT P6SM BKN250
FM082000 03006KT P6SM BKN200
FM090200 05006KT P6SM OVC050
FM090700 01007KT P6SM OVC040
FM090900 35009KT 5SM -SN OVC007
FM091000 35012G20KT 4SM -SN OVC007

Example: see airport list